Date,TemperatureHighF,TemperatureAvgF,TemperatureLowF,DewpointHighF,DewpointAvgF,DewpointLowF,HumidityHigh,HumidityAvg,HumidityLow,PressureMaxIn,PressureMinIn,WindSpeedMaxMPH,WindSpeedAvgMPH,GustSpeedMaxMPH,PrecipitationSumIn
2013-1-1,57,43,36,57,33,-1,100,78,12,30.24,30.15,7,1,11,0.00
2013-1-2,65,45,34,65,37,0,100,83,12,30.21,30.08,2,0,6,0.00
2013-1-3,58,43,34,58,33,0,100,79,13,30.23,30.12,5,0,8,0.00
2013-1-4,64,46,36,64,35,-15,100,80,5,30.25,30.15,6,0,9,0.00
2013-1-5,55,49,42,53,46,32,100,92,44,30.26,30.07,3,0,10,0.30
2013-1-6,51,47,39,50,45,34,100,94,53,30.18,30.04,3,0,12,0.11
2013-1-7,55,45,38,51,38,14,100,83,20,30.25,30.14,6,0,10,0.01
2013-1-8,61,49,41,54,37,-4,100,78,7,30.20,30.09,5,0,7,0.00
2013-1-9,56,48,41,53,40,21,100,79,34,30.11,29.99,7,1,12,0.01
2013-1-10,53,42,35,53,27,-21,100,69,5,30.19,30.04,6,1,17,0.00
2013-1-11,52,42,34,42,22,-35,100,63,2,30.27,30.13,4,0,10,0.03
2013-1-12,49,40,33,49,26,-29,100,71,3,30.25,30.13,7,1,11,0.01
2013-1-13,51,37,29,51,22,-50,100,69,1,30.25,30.14,7,1,11,0.00
2013-1-14,52,37,28,52,25,-10,100,68,11,30.40,30.20,3,0,10,0.00
2013-1-15,54,39,30,54,31,-6,100,79,12,30.48,30.39,4,1,7,0.00
2013-1-16,61,43,32,61,35,-1,100,81,13,30.41,30.21,3,0,7,0.00
2013-1-17,74,50,36,74,40,-8,100,79,7,30.22,30.07,5,0,8,0.00
2013-1-18,73,50,38,73,31,-26,100,58,3,30.18,30.07,4,0,7,0.00
2013-1-19,75,50,38,75,27,-5,100,50,9,30.18,30.08,2,0,8,0.00
2013-1-20,75,51,37,75,27,-19,100,48,5,30.17,30.04,7,0,10,0.00
2013-1-21,75,51,38,75,20,-38,100,42,2,30.13,30.01,3,0,8,0.00
2013-1-22,68,51,39,68,13,-47,100,36,1,30.06,29.96,3,0,9,0.00
2013-1-23,59,52,48,51,15,-45,100,36,1,30.05,29.93,2,0,11,0.02
2013-1-24,59,54,50,57,52,42,100,96,54,30.14,30.00,3,0,6,0.04
2013-1-25,69,58,51,61,47,14,100,77,12,30.15,29.98,5,0,12,0.00
2013-1-26,62,52,41,61,33,-44,100,64,1,30.08,29.95,7,1,13,0.01
2013-1-27,57,44,35,57,25,-26,100,62,3,30.16,30.07,7,1,11,0.00
2013-1-28,59,45,34,59,34,-10,100,76,7,30.28,30.15,4,1,17,0.00
2013-1-29,57,45,36,48,30,-10,100,73,6,30.34,30.24,6,0,9,0.00
2013-1-30,62,48,39,49,27,-30,100,64,2,30.34,30.24,3,0,7,0.00
2013-1-31,66,50,39,66,35,-29,100,75,2,30.26,30.13,5,0,7,0.00
2013-2-1,71,50,40,71,42,0,100,86,11,30.20,30.08,6,1,12,0.00
2013-2-2,57,49,44,52,44,26,100,87,30,30.27,30.19,3,0,7,0.00
2013-2-3,56,49,42,50,42,16,100,85,21,30.24,30.12,4,0,11,0.01
2013-2-4,61,47,38,53,38,-20,100,83,3,30.17,30.04,3,0,9,0.00
2013-2-5,55,48,41,50,43,22,100,89,28,30.14,30.05,6,1,8,0.01
2013-2-6,59,46,38,50,33,0,100,73,14,30.19,30.11,4,0,8,0.00
2013-2-7,54,45,38,49,33,-7,100,72,8,30.17,30.00,7,1,10,0.03
2013-2-8,55,44,36,55,29,-46,100,71,1,30.00,29.92,4,0,10,0.05
2013-2-9,54,42,32,45,24,-34,100,68,2,30.10,29.98,4,1,11,0.01
2013-2-10,54,42,33,54,31,-26,100,77,3,30.11,30.01,6,1,8,0.00
2013-2-11,57,44,35,57,33,-15,100,77,5,30.24,30.05,6,1,8,0.01
2013-2-12,57,45,36,44,26,-44,100,66,1,30.35,30.24,6,1,12,0.00
2013-2-13,60,46,35,47,27,-42,100,67,1,30.34,30.21,6,1,8,0.00
2013-2-14,70,51,38,70,38,-8,100,74,6,30.21,30.09,4,0,10,0.01
2013-2-15,77,56,41,77,39,-8,100,66,8,30.22,30.14,4,0,8,0.00
2013-2-16,75,56,45,75,31,-23,100,54,3,30.17,30.00,5,1,11,0.00
2013-2-17,56,47,40,50,40,13,100,83,18,30.05,29.96,8,1,10,0.00
2013-2-18,51,46,39,49,33,7,100,70,18,30.05,29.97,6,1,11,0.01
2013-2-19,49,43,34,49,39,12,100,89,24,29.97,29.75,12,1,14,0.35
2013-2-20,60,44,32,60,28,-17,100,70,5,30.07,29.82,9,1,15,0.01
2013-2-21,61,46,36,61,38,-37,100,82,2,30.16,30.04,8,1,12,0.00
2013-2-22,62,46,36,46,26,-29,100,64,2,30.25,30.16,6,1,10,0.00
2013-2-23,62,50,42,62,35,-37,100,73,2,30.23,30.10,8,1,14,0.00
2013-2-24,60,48,37,60,25,-37,100,52,2,30.25,30.13,9,2,12,0.00
2013-2-25,64,46,35,64,27,-29,100,62,2,30.27,30.13,5,1,8,0.00
2013-2-26,65,48,34,65,32,-31,100,70,2,30.19,30.08,5,1,8,0.00
2013-2-27,66,49,36,66,34,-24,100,70,4,30.35,30.19,6,1,10,0.00
2013-2-28,47,42,40,47,42,40,100,100,100,30.43,30.35,0,0,2,0.00
2013-3-1,74,57,44,74,42,-37,100,77,1,30.40,30.16,3,1,10,0.01
2013-3-2,72,56,48,72,42,0,100,77,15,30.19,30.07,6,1,10,0.00
2013-3-3,56,51,49,52,49,43,100,93,64,30.10,30.03,6,1,12,0.00
2013-3-4,55,50,47,50,42,23,100,77,29,30.13,30.05,7,1,14,0.00
2013-3-5,52,48,44,46,30,-1,100,60,11,30.08,29.92,7,2,18,0.12
2013-3-6,55,50,41,52,39,3,100,76,12,30.07,29.91,11,2,22,0.23
2013-3-7,57,48,39,57,33,-44,100,75,1,29.98,29.82,6,1,16,0.16
2013-3-8,61,50,43,61,30,-33,100,63,2,30.07,29.80,7,2,16,0.04
2013-3-9,68,51,40,68,33,-14,100,67,5,30.29,30.07,7,1,13,0.00
2013-3-10,60,48,38,50,35,-29,100,73,2,30.34,30.24,6,1,11,0.00
2013-3-11,66,50,39,66,38,-20,100,79,3,30.24,30.09,6,1,11,0.00
2013-3-12,72,53,40,72,38,-3,100,74,7,30.13,30.01,3,0,10,0.01
2013-3-13,76,55,44,76,39,-12,100,77,4,30.13,30.02,4,1,11,0.00
2013-3-14,65,53,42,54,40,-4,100,74,6,30.14,30.06,5,1,10,0.00
2013-3-15,72,54,42,72,41,-10,100,76,5,30.09,30.00,7,1,8,0.01
2013-3-16,70,54,46,55,39,-37,100,75,1,30.08,29.99,6,1,12,0.00
2013-3-17,66,52,42,66,38,-6,100,74,7,30.12,30.00,5,1,11,0.00
2013-3-18,60,49,40,50,32,-29,100,70,2,30.11,30.01,5,1,16,0.01
2013-3-19,67,53,44,67,41,-18,100,79,4,30.14,30.03,7,1,11,0.06
2013-3-20,62,55,51,62,48,-16,100,86,4,30.11,30.05,4,1,11,0.01
2013-3-21,64,54,45,64,32,-23,100,61,3,30.09,29.95,7,1,11,0.00
2013-3-22,71,52,39,69,37,-21,100,73,4,30.06,29.96,6,1,11,0.00
2013-3-23,69,51,37,69,39,0,100,72,13,30.10,30.00,6,1,10,0.00
2013-3-24,68,51,39,68,34,-30,100,71,2,30.08,29.94,6,1,11,0.00
2013-3-25,62,50,42,62,36,-18,100,73,4,30.01,29.91,6,1,11,0.00
2013-3-26,60,50,43,50,34,-16,100,69,4,29.99,29.92,6,1,12,0.00
2013-3-27,63,53,44,56,43,3,100,78,9,30.00,29.93,9,1,13,0.00
2013-3-28,63,56,49,59,50,28,100,84,28,30.07,29.99,5,1,13,0.04
2013-3-29,68,54,46,60,43,-5,100,80,5,30.07,30.02,6,1,16,0.01
2013-3-30,65,56,52,56,41,-27,100,73,2,30.08,29.99,8,1,12,0.13
2013-3-31,58,54,52,58,54,52,100,100,100,30.05,30.00,3,0,11,0.01
2013-4-1,62,56,49,58,46,18,100,78,18,30.14,30.02,6,1,14,0.27
2013-4-2,67,55,45,55,36,-4,100,66,6,30.16,30.06,7,1,11,0.00
2013-4-3,72,56,49,59,44,0,100,77,7,30.10,29.99,7,2,14,0.00
2013-4-4,60,55,51,60,54,51,100,99,83,30.10,30.01,6,1,12,0.15
2013-4-5,62,56,50,58,49,28,100,81,28,30.17,30.09,7,1,15,0.01
2013-4-6,60,55,50,56,49,32,100,84,34,30.18,30.11,6,1,14,0.00
2013-4-7,64,56,52,56,44,14,100,71,14,30.16,29.87,7,1,14,0.04
2013-4-8,68,55,45,68,40,-26,100,69,3,29.98,29.81,8,3,20,0.05
2013-4-9,76,59,43,76,49,-27,100,77,3,30.03,29.94,8,2,18,0.00
2013-4-10,83,60,46,83,47,-10,100,71,4,30.12,29.97,6,1,11,0.00
2013-4-11,68,56,47,53,34,-13,100,61,4,30.05,29.84,8,1,13,0.00
2013-4-12,66,53,46,50,34,-39,100,66,1,29.91,29.81,6,1,12,0.00
2013-4-13,67,54,46,67,31,-39,100,61,1,29.90,29.79,6,1,11,0.00
2013-4-14,70,53,41,70,41,-22,100,74,3,29.92,29.81,10,1,11,0.00
2013-4-15,60,51,42,60,33,-33,100,65,2,29.94,29.84,11,2,22,0.02
2013-4-16,67,50,35,67,35,-26,100,71,4,30.10,29.93,8,2,17,0.00
2013-4-17,71,57,43,71,37,-32,100,66,3,30.21,30.10,6,1,22,0.00
2013-4-18,66,52,39,66,26,-46,100,51,1,30.24,30.17,7,1,11,0.00
2013-4-19,66,54,42,66,33,-9,100,63,5,30.23,30.05,8,1,11,0.00
2013-4-20,78,57,44,78,44,-10,100,76,5,30.07,29.92,6,1,11,0.00
2013-4-21,81,59,44,81,45,-4,100,75,6,29.99,29.87,5,1,10,0.00
2013-4-22,64,54,47,53,38,-9,100,66,5,29.94,29.86,8,1,16,0.00
2013-4-23,57,52,49,52,48,36,100,87,46,29.96,29.85,10,2,14,0.00
2013-4-24,60,53,49,50,42,11,100,75,14,29.95,29.82,7,2,17,0.00
2013-4-25,63,55,47,52,32,-40,100,64,1,30.11,29.94,10,2,16,0.00
2013-4-26,66,53,42,53,35,-26,100,68,2,30.20,30.10,7,1,12,0.00
2013-4-27,64,54,48,54,35,-38,100,70,1,30.20,30.07,7,2,11,0.00
2013-4-28,66,54,47,55,37,-18,100,70,3,30.07,29.87,8,1,10,0.00
2013-4-29,80,61,48,80,41,-37,100,69,1,29.88,29.73,8,1,12,0.00
2013-4-30,76,58,47,76,39,0,100,67,10,29.82,29.73,6,1,10,0.00
2013-5-1,63,54,46,52,42,-27,100,74,2,30.07,29.81,9,1,14,0.00
2013-5-2,82,62,49,82,53,-11,100,84,4,30.10,30.05,6,1,11,0.00
2013-5-3,79,64,50,79,56,-4,100,80,6,30.06,29.77,7,2,10,0.00
2013-5-4,60,54,46,55,48,41,100,82,58,29.77,29.64,8,2,12,0.00
2013-5-5,64,57,51,52,36,-10,100,59,5,29.77,29.62,8,2,14,0.00
2013-5-6,63,58,50,54,37,5,100,55,10,29.93,29.77,5,1,14,0.00
2013-5-7,65,58,52,54,36,-8,100,57,5,30.03,29.92,7,1,18,0.00
2013-5-8,65,56,51,53,40,-25,100,72,2,30.12,30.03,7,2,14,0.00
2013-5-9,66,56,51,51,36,-18,97,59,3,30.16,30.06,6,1,12,0.00
2013-5-10,70,57,48,54,36,-24,100,64,2,30.16,30.07,9,2,14,0.00
2013-5-11,72,57,47,59,40,-36,100,71,1,30.13,30.05,6,1,11,0.00
2013-5-12,81,61,48,81,44,0,100,69,11,30.10,29.98,5,1,8,0.00
2013-5-13,78,60,51,78,45,0,100,73,8,30.07,29.91,6,1,12,0.00
2013-5-14,67,56,50,55,42,-25,100,70,2,30.03,29.92,10,2,14,0.00
2013-5-15,69,57,45,53,28,-27,100,51,2,30.07,29.99,8,2,13,0.00
2013-5-16,66,55,48,57,48,26,100,82,22,30.03,29.95,10,2,13,0.01
2013-5-17,72,57,46,72,32,-20,100,58,3,30.08,29.97,6,2,13,0.01
2013-5-18,73,56,42,73,32,-8,100,56,5,30.13,30.05,9,1,12,0.00
2013-5-19,79,60,47,79,45,0,100,72,7,30.10,29.92,5,1,11,0.00
2013-5-20,83,62,46,83,39,-24,100,64,2,29.96,29.85,8,1,12,0.00
2013-5-21,75,58,47,75,37,-21,100,64,4,29.98,29.88,7,1,16,0.00
2013-5-22,69,54,41,69,40,-27,100,72,3,29.97,29.86,11,2,18,0.00
2013-5-23,63,52,39,63,21,-45,100,45,1,29.99,29.92,10,2,16,0.00
2013-5-24,69,53,40,69,38,-4,100,70,8,30.00,29.92,8,2,13,0.00
2013-5-25,67,53,41,67,26,-40,100,54,1,30.06,29.98,13,2,13,0.00
2013-5-26,70,56,46,54,39,-16,100,66,3,30.12,30.03,7,2,13,0.00
2013-5-27,65,57,47,57,44,18,100,70,16,30.12,29.99,5,1,11,0.00
2013-5-28,74,60,53,59,38,-35,100,63,1,29.99,29.86,6,1,13,0.00
2013-5-29,76,61,50,76,42,-15,100,66,3,29.93,29.82,5,1,11,0.00
2013-5-30,74,58,44,74,41,-14,100,68,4,29.97,29.89,8,1,12,0.00
2013-5-31,80,60,44,80,41,-26,100,67,2,29.97,29.85,7,1,10,0.00
2013-6-1,79,60,47,79,34,-37,100,57,1,29.91,29.75,6,1,10,0.00
2013-6-2,63,55,48,54,43,17,100,72,17,29.76,29.71,10,2,14,0.00
2013-6-3,62,55,51,53,41,8,100,67,12,29.86,29.73,10,2,16,0.00
2013-6-4,63,55,47,54,43,23,100,72,22,29.95,29.84,10,2,13,0.00
2013-6-5,54,52,50,54,52,50,100,100,99,29.97,29.93,0,0,3,0.00